Terminal Aerodrome Forecast
Issued by NWS Twin Cities, MN

Home | Current Version | Previous Version | Text Only | Print | Product List | Glossary On
Versions: 1 2 3 4 5 6 7 8 9 10 11 12 13 14 15 16 17 18 19 20 21 22 23 24 25
000
FTUS43 KMPX 281100
TAFMSP
TAF
KMSP 281120Z 2812/2918 12006KT P6SM FEW040 BKN300
     FM281500 12009KT P6SM SCT060 OVC150
     FM281900 12008G14KT 6SM -SHRA BKN025 OVC035
     FM290200 12009KT 5SM -SHRA BR SCT007 OVC010
     FM290600 11008KT 5SM -DZ BR SCT004 OVC007
     FM291300 12008KT 6SM BR BKN008 OVC010=

USA.gov is the U.S. government's official web portal to all federal, state and local government web resources and services.